createdAt,value
2023-01-29T00:01:49.853Z,0.59
2023-01-29T00:04:53.732Z,0.64
2023-01-29T00:07:59.507Z,0.62
2023-01-29T00:11:02.921Z,0.54
2023-01-29T00:14:05.572Z,0.57
2023-01-29T00:17:11.107Z,0.60
2023-01-29T00:20:14.816Z,0.60
2023-01-29T00:23:17.916Z,0.61
2023-01-29T00:26:20.184Z,0.60
2023-01-29T00:29:23.283Z,0.51
2023-01-29T00:32:25.764Z,0.44
2023-01-29T00:35:28.545Z,0.39
2023-01-29T00:38:33.411Z,0.30
2023-01-29T00:41:55.552Z,0.20
2023-01-29T00:44:57.909Z,0.13
2023-01-29T00:48:00.498Z,0.06
2023-01-29T00:51:03.676Z,-0.07
2023-01-29T00:54:06.955Z,-0.15
2023-01-29T00:57:09.404Z,-0.24
2023-01-29T01:00:14.918Z,-0.22
2023-01-29T01:03:18.064Z,-0.26
2023-01-29T01:06:23.022Z,-0.41
2023-01-29T01:09:43.854Z,-0.51
2023-01-29T01:12:47.071Z,-0.56
2023-01-29T01:15:49.456Z,-0.60
2023-01-29T01:18:52.258Z,-0.60
2023-01-29T01:21:54.960Z,-0.54
2023-01-29T01:24:57.698Z,-0.52
2023-01-29T01:28:03.319Z,-0.56
2023-01-29T01:31:10.609Z,-0.59
2023-01-29T01:34:12.955Z,-0.64
2023-01-29T01:37:15.621Z,-0.65
2023-01-29T01:40:19.251Z,-0.60
2023-01-29T01:43:22.389Z,-0.68
2023-01-29T01:46:26.022Z,-0.66
2023-01-29T01:49:28.728Z,-0.62
2023-01-29T01:52:32.366Z,-0.66
2023-01-29T01:55:36.929Z,-0.69
2023-01-29T01:58:45.335Z,-0.70
2023-01-29T02:01:51.135Z,-0.76
2023-01-29T02:05:12.610Z,-0.64
2023-01-29T02:08:33.606Z,-0.64
2023-01-29T02:11:36.768Z,-0.57
2023-01-29T02:14:40.498Z,-0.59
2023-01-29T02:17:46.052Z,-0.59
2023-01-29T02:21:07.726Z,-0.63
2023-01-29T02:24:28.854Z,-0.63
2023-01-29T02:27:40.641Z,-0.70
2023-01-29T02:30:49.100Z,-0.83
2023-01-29T02:34:12.268Z,-0.88
2023-01-29T02:37:15.348Z,-0.86
2023-01-29T02:40:27.313Z,-1.01
2023-01-29T02:43:35.595Z,-1.13
2023-01-29T02:46:45.816Z,-1.09
2023-01-29T02:50:07.075Z,-1.16
2023-01-29T02:53:36.957Z,-1.15
2023-01-29T02:56:44.674Z,-1.09
2023-01-29T02:59:50.749Z,-1.07
2023-01-29T03:03:00.066Z,-1.08
2023-01-29T03:06:06.736Z,-1.14
2023-01-29T03:09:12.985Z,-1.19
2023-01-29T03:12:28.562Z,-1.16
2023-01-29T03:15:39.226Z,-1.18
2023-01-29T03:18:46.906Z,-1.13
2023-01-29T03:21:59.019Z,-1.08
2023-01-29T03:25:21.770Z,-0.84
2023-01-29T03:28:42.681Z,-0.70
2023-01-29T03:32:06.606Z,-0.59
2023-01-29T03:35:10.581Z,-0.47
2023-01-29T03:38:13.241Z,-0.35
2023-01-29T03:41:19.581Z,-0.30
2023-01-29T03:44:37.673Z,-0.26
2023-01-29T03:47:56.713Z,-0.18
2023-01-29T03:51:10.317Z,-0.12
2023-01-29T03:54:18.507Z,-0.06
2023-01-29T03:57:24.395Z,-0.06
2023-01-29T04:00:30.137Z,-0.11
2023-01-29T04:03:47.984Z,-0.12
2023-01-29T04:06:53.148Z,-0.11
2023-01-29T04:10:05.618Z,-0.01
2023-01-29T04:13:11.713Z,0.04
2023-01-29T04:16:18.012Z,0.02
2023-01-29T04:19:22.856Z,0.06
2023-01-29T04:22:32.052Z,0.12
2023-01-29T04:25:39.595Z,0.10
2023-01-29T04:28:51.397Z,0.15
2023-01-29T04:31:54.063Z,0.13
2023-01-29T04:34:56.820Z,0.17
2023-01-29T04:38:12.628Z,0.21
2023-01-29T04:41:22.557Z,0.20
2023-01-29T04:44:27.724Z,0.14
2023-01-29T04:47:49.887Z,0.22
2023-01-29T04:51:01.501Z,0.21
2023-01-29T04:54:07.479Z,0.25
2023-01-29T04:57:28.064Z,0.24
2023-01-29T05:00:33.684Z,0.19
2023-01-29T05:03:37.559Z,0.23
2023-01-29T05:06:40.542Z,0.28
2023-01-29T05:09:45.184Z,0.29
2023-01-29T05:12:50.365Z,0.22
2023-01-29T05:15:56.610Z,0.21
2023-01-29T05:18:59.240Z,0.29
2023-01-29T05:22:05.417Z,0.23
2023-01-29T05:25:25.242Z,0.23
2023-01-29T05:28:27.774Z,0.21
2023-01-29T05:31:30.493Z,0.15
2023-01-29T05:34:32.901Z,0.21
2023-01-29T05:37:35.527Z,0.21
2023-01-29T05:40:39.249Z,0.16
2023-01-29T05:43:41.898Z,0.19
2023-01-29T05:46:45.116Z,0.25
2023-01-29T05:49:47.848Z,0.24
2023-01-29T05:52:50.206Z,0.25
2023-01-29T05:55:52.844Z,0.24
2023-01-29T05:58:55.646Z,0.20
2023-01-29T06:01:58.432Z,0.21
2023-01-29T06:05:01.445Z,0.20
2023-01-29T06:08:03.980Z,0.19
2023-01-29T06:11:09.579Z,0.17
2023-01-29T06:14:12.030Z,0.12
2023-01-29T06:17:14.716Z,0.11
2023-01-29T06:20:18.096Z,0.09
2023-01-29T06:23:21.054Z,0.10
2023-01-29T06:26:23.461Z,0.15
2023-01-29T06:29:26.401Z,0.13
2023-01-29T06:32:28.825Z,0.16
2023-01-29T06:35:31.552Z,0.20
2023-01-29T06:38:33.893Z,0.20
2023-01-29T06:41:36.503Z,0.28
2023-01-29T06:44:38.822Z,0.25
2023-01-29T06:47:41.436Z,0.24
2023-01-29T06:50:43.857Z,0.29
2023-01-29T06:53:48.603Z,0.26
2023-01-29T06:56:51.624Z,0.28
2023-01-29T06:59:54.355Z,0.26
2023-01-29T07:02:56.721Z,0.30
2023-01-29T07:05:59.672Z,0.29
2023-01-29T07:09:03.077Z,0.34
2023-01-29T07:12:05.740Z,0.38
2023-01-29T07:15:08.389Z,0.36
2023-01-29T07:18:13.801Z,0.39
2023-01-29T07:21:16.273Z,0.34
2023-01-29T07:24:19.396Z,0.38
2023-01-29T07:27:21.829Z,0.41
2023-01-29T07:30:24.929Z,0.37
2023-01-29T07:33:27.468Z,0.41
2023-01-29T07:36:32.573Z,0.39
2023-01-29T07:39:35.205Z,0.39
2023-01-29T07:42:42.260Z,0.39
2023-01-29T07:45:44.675Z,0.49
2023-01-29T07:48:47.344Z,0.55
2023-01-29T07:51:49.684Z,0.71
2023-01-29T07:54:52.306Z,0.72
2023-01-29T07:58:02.096Z,0.67
2023-01-29T08:01:07.518Z,0.73
2023-01-29T08:04:10.221Z,0.76
2023-01-29T08:07:12.543Z,0.74
2023-01-29T08:10:16.119Z,0.77
2023-01-29T08:13:19.822Z,0.88
2023-01-29T08:16:22.544Z,0.94
2023-01-29T08:19:24.983Z,0.79
2023-01-29T08:22:27.580Z,0.65
2023-01-29T08:25:30.400Z,0.70
2023-01-29T08:28:33.565Z,0.72
2023-01-29T08:31:37.411Z,0.77
2023-01-29T08:34:40.037Z,0.83
2023-01-29T08:37:42.394Z,0.78
2023-01-29T08:40:45.180Z,0.73
2023-01-29T08:43:47.536Z,0.68
2023-01-29T08:46:50.206Z,0.75
2023-01-29T08:49:52.535Z,0.74
2023-01-29T08:52:57.697Z,0.60
2023-01-29T08:56:00.097Z,0.50
2023-01-29T08:59:02.764Z,0.48
2023-01-29T09:02:05.238Z,0.43
2023-01-29T09:05:08.111Z,0.46
2023-01-29T09:08:10.578Z,0.54
2023-01-29T09:11:13.689Z,0.65
2023-01-29T09:14:16.610Z,0.61
2023-01-29T09:17:19.754Z,0.75
2023-01-29T09:20:22.421Z,0.75
2023-01-29T09:23:25.662Z,0.76
2023-01-29T09:26:28.037Z,0.82
2023-01-29T09:29:30.962Z,0.90
2023-01-29T09:32:53.701Z,0.95
2023-01-29T09:35:57.045Z,1.01
2023-01-29T09:38:59.645Z,1.08
2023-01-29T09:42:05.639Z,1.13
2023-01-29T09:45:37.772Z,1.23
2023-01-29T09:48:41.303Z,1.23
2023-01-29T09:51:46.725Z,1.03
2023-01-29T09:55:16.027Z,0.93
2023-01-29T09:58:21.503Z,0.95
2023-01-29T10:01:41.973Z,0.96
2023-01-29T10:04:50.716Z,0.89
2023-01-29T10:07:56.616Z,1.09
2023-01-29T10:11:11.790Z,1.18
2023-01-29T10:14:24.575Z,1.23
2023-01-29T10:17:36.276Z,1.28
2023-01-29T10:20:51.180Z,1.29
2023-01-29T10:23:58.112Z,1.36
2023-01-29T10:27:01.113Z,1.49
2023-01-29T10:30:06.940Z,1.52
2023-01-29T10:33:15.020Z,1.42
2023-01-29T10:36:28.668Z,1.33
2023-01-29T10:39:31.443Z,1.44
2023-01-29T10:42:41.376Z,1.31
2023-01-29T10:45:49.556Z,1.26
2023-01-29T10:48:52.272Z,1.12
2023-01-29T10:51:54.683Z,1.11
2023-01-29T10:55:04.321Z,1.04
2023-01-29T10:58:07.013Z,1.05
2023-01-29T11:01:10.694Z,1.10
2023-01-29T11:04:14.185Z,1.19
2023-01-29T11:07:18.552Z,1.17
2023-01-29T11:10:22.434Z,1.21
2023-01-29T11:13:29.892Z,1.17
2023-01-29T11:16:39.835Z,1.13
2023-01-29T11:19:43.606Z,1.12
2023-01-29T11:22:53.886Z,1.23
2023-01-29T11:25:57.910Z,1.48
2023-01-29T11:29:00.271Z,1.44
2023-01-29T11:32:07.316Z,1.27
2023-01-29T11:35:12.471Z,1.31
2023-01-29T11:38:28.611Z,1.31
2023-01-29T11:41:42.235Z,1.21
2023-01-29T11:44:45.136Z,1.20
2023-01-29T11:47:54.645Z,1.37
2023-01-29T11:51:00.645Z,1.60
2023-01-29T11:54:04.458Z,1.61
2023-01-29T11:57:19.238Z,1.53
2023-01-29T12:00:21.914Z,1.51
2023-01-29T12:03:27.984Z,1.39
2023-01-29T12:06:33.264Z,1.56
2023-01-29T12:09:39.373Z,1.67
2023-01-29T12:12:42.262Z,1.47
2023-01-29T12:15:44.876Z,1.47
2023-01-29T12:18:53.269Z,1.42
2023-01-29T12:21:56.022Z,1.58
2023-01-29T12:25:17.949Z,1.57
2023-01-29T12:28:26.750Z,1.51
2023-01-29T12:31:47.959Z,1.48
2023-01-29T12:34:55.530Z,1.53
2023-01-29T12:37:58.362Z,1.28
2023-01-29T12:41:06.800Z,1.52
2023-01-29T12:44:16.276Z,1.46
2023-01-29T12:47:25.260Z,1.58
2023-01-29T12:50:29.686Z,1.46
2023-01-29T12:53:34.987Z,1.39
2023-01-29T12:56:56.118Z,1.30
2023-01-29T13:00:02.512Z,1.14
2023-01-29T13:03:08.090Z,1.25
2023-01-29T13:06:15.219Z,1.14
2023-01-29T13:09:20.849Z,1.15
2023-01-29T13:12:24.337Z,1.05
2023-01-29T13:15:31.267Z,1.17
2023-01-29T13:18:46.168Z,1.37
2023-01-29T13:21:48.872Z,1.33
2023-01-29T13:25:03.558Z,1.30
2023-01-29T13:28:16.275Z,1.45
2023-01-29T13:31:29.755Z,1.48
2023-01-29T13:34:45.382Z,1.39
2023-01-29T13:37:50.507Z,1.17
2023-01-29T13:40:54.721Z,1.29
2023-01-29T13:43:57.529Z,1.19
2023-01-29T13:47:05.401Z,1.22
2023-01-29T13:50:27.712Z,0.99
2023-01-29T13:53:38.160Z,0.90
2023-01-29T13:56:43.807Z,0.68
2023-01-29T13:59:54.576Z,0.65
2023-01-29T14:03:00.398Z,0.55
2023-01-29T14:06:03.117Z,0.68
2023-01-29T14:09:25.755Z,0.60
2023-01-29T14:12:33.052Z,0.70
2023-01-29T14:15:36.681Z,0.93
2023-01-29T14:18:47.064Z,1.00
2023-01-29T14:21:50.927Z,1.16
2023-01-29T14:24:55.659Z,1.31
2023-01-29T14:27:59.539Z,1.22
2023-01-29T14:31:03.891Z,1.03
2023-01-29T14:34:12.739Z,0.75
2023-01-29T14:37:15.374Z,0.34
2023-01-29T14:40:17.777Z,0.12
2023-01-29T14:43:21.747Z,0.04
2023-01-29T14:46:33.295Z,-0.15
2023-01-29T14:49:55.874Z,-0.24
2023-01-29T14:53:17.323Z,-0.36
2023-01-29T14:56:22.907Z,-0.52
2023-01-29T14:59:34.385Z,-0.66
2023-01-29T15:02:40.396Z,-0.65
2023-01-29T15:05:43.314Z,-0.62
2023-01-29T15:09:10.282Z,-0.57
2023-01-29T15:12:32.835Z,-0.57
2023-01-29T15:15:44.989Z,-0.66
2023-01-29T15:18:50.528Z,-0.83
2023-01-29T15:22:02.954Z,-0.96
2023-01-29T15:25:15.351Z,-1.07
2023-01-29T15:28:18.370Z,-1.19
2023-01-29T15:31:28.266Z,-1.30
2023-01-29T15:34:31.289Z,-1.35
2023-01-29T15:37:35.231Z,-1.43
2023-01-29T15:40:38.779Z,-1.46
2023-01-29T15:43:45.930Z,-1.51
2023-01-29T15:46:51.261Z,-1.54
2023-01-29T15:49:55.015Z,-1.56
2023-01-29T15:53:00.319Z,-1.57
2023-01-29T15:56:07.792Z,-1.61
2023-01-29T15:59:16.394Z,-1.64
2023-01-29T16:02:28.258Z,-1.69
2023-01-29T16:05:33.145Z,-1.67
2023-01-29T16:08:38.705Z,-1.74
2023-01-29T16:11:41.749Z,-1.71
2023-01-29T16:14:45.991Z,-1.70
2023-01-29T16:17:50.517Z,-1.82
2023-01-29T16:20:54.524Z,-1.84
2023-01-29T16:24:02.573Z,-1.85
2023-01-29T16:27:13.660Z,-1.79
2023-01-29T16:30:17.607Z,-1.83
2023-01-29T16:33:21.427Z,-1.83
2023-01-29T16:36:25.856Z,-1.79
2023-01-29T16:39:32.625Z,-1.72
2023-01-29T16:42:37.768Z,-1.60
2023-01-29T16:45:40.407Z,-1.57
2023-01-29T16:48:43.355Z,-1.55
2023-01-29T16:51:46.230Z,-1.52
2023-01-29T16:54:49.388Z,-1.55
2023-01-29T16:57:53.720Z,-1.63
2023-01-29T17:01:05.009Z,-1.65
2023-01-29T17:04:13.477Z,-1.73
2023-01-29T17:07:21.252Z,-1.79
2023-01-29T17:10:25.541Z,-1.84
2023-01-29T17:13:40.309Z,-1.90
2023-01-29T17:16:50.997Z,-1.91
2023-01-29T17:19:53.948Z,-2.00
2023-01-29T17:22:56.665Z,-2.02
2023-01-29T17:25:59.600Z,-2.07
2023-01-29T17:29:02.386Z,-2.08
2023-01-29T17:32:05.395Z,-2.15
2023-01-29T17:35:09.179Z,-2.20
2023-01-29T17:38:24.977Z,-2.25
2023-01-29T17:41:30.135Z,-2.26
2023-01-29T17:44:33.112Z,-2.35
2023-01-29T17:47:35.647Z,-2.33
2023-01-29T17:50:39.846Z,-2.32
2023-01-29T17:53:46.899Z,-2.41
2023-01-29T17:56:50.644Z,-2.35
2023-01-29T17:59:53.263Z,-2.44
2023-01-29T18:02:57.980Z,-2.42
2023-01-29T18:06:00.604Z,-2.48
2023-01-29T18:09:03.876Z,-2.55
2023-01-29T18:12:09.825Z,-2.54
2023-01-29T18:15:13.046Z,-2.57
2023-01-29T18:18:18.757Z,-2.58
2023-01-29T18:21:22.655Z,-2.61
2023-01-29T18:24:26.679Z,-2.68
2023-01-29T18:27:29.448Z,-2.69
2023-01-29T18:30:32.848Z,-2.74
2023-01-29T18:33:35.567Z,-2.83
2023-01-29T18:36:38.538Z,-2.83
2023-01-29T18:39:41.129Z,-2.83
2023-01-29T18:42:45.492Z,-2.84
2023-01-29T18:45:48.857Z,-2.89
2023-01-29T18:48:51.583Z,-2.94
2023-01-29T18:51:54.484Z,-2.87
2023-01-29T18:54:57.456Z,-2.85
2023-01-29T18:58:26.869Z,-2.92
2023-01-29T19:01:23.597Z,-2.94
2023-01-29T19:04:26.658Z,-3.01
2023-01-29T19:07:29.495Z,-3.04
2023-01-29T19:10:33.165Z,-3.02
2023-01-29T19:13:36.734Z,-3.07
2023-01-29T19:16:41.247Z,-3.10
2023-01-29T19:19:44.311Z,-3.10
2023-01-29T19:22:47.366Z,-3.09
2023-01-29T19:25:50.206Z,-3.09
2023-01-29T19:28:53.392Z,-3.10
2023-01-29T19:31:56.504Z,-3.07
2023-01-29T19:34:59.999Z,-3.01
2023-01-29T19:38:04.163Z,-3.04
2023-01-29T19:41:07.011Z,-3.08
2023-01-29T19:44:10.537Z,-3.08
2023-01-29T19:47:12.947Z,-3.12
2023-01-29T19:50:15.767Z,-3.16
2023-01-29T19:53:18.407Z,-3.25
2023-01-29T19:56:21.264Z,-3.25
2023-01-29T19:59:24.032Z,-3.25
2023-01-29T20:02:28.367Z,-3.23
2023-01-29T20:05:31.433Z,-3.21
2023-01-29T20:08:34.686Z,-3.16
2023-01-29T20:11:37.604Z,-3.25
2023-01-29T20:14:45.624Z,-3.27
2023-01-29T20:17:48.633Z,-3.22
2023-01-29T20:20:53.069Z,-3.25
2023-01-29T20:23:56.490Z,-3.23
2023-01-29T20:26:58.946Z,-3.24
2023-01-29T20:30:01.711Z,-3.21
2023-01-29T20:33:06.213Z,-3.24
2023-01-29T20:36:10.110Z,-3.25
2023-01-29T20:39:12.834Z,-3.21
2023-01-29T20:42:16.270Z,-3.22
2023-01-29T20:45:19.294Z,-3.24
2023-01-29T20:48:21.996Z,-3.36
2023-01-29T20:51:24.613Z,-3.33
2023-01-29T20:54:29.964Z,-3.32
2023-01-29T20:57:36.804Z,-3.29
2023-01-29T21:00:39.897Z,-3.25
2023-01-29T21:03:42.284Z,-3.26
2023-01-29T21:06:45.242Z,-3.26
2023-01-29T21:09:47.932Z,-3.26
2023-01-29T21:12:51.868Z,-3.27
2023-01-29T21:15:54.501Z,-3.26
2023-01-29T21:18:58.298Z,-3.28
2023-01-29T21:22:02.467Z,-3.34
2023-01-29T21:25:05.481Z,-3.36
2023-01-29T21:28:08.059Z,-3.32
2023-01-29T21:31:12.261Z,-3.35
2023-01-29T21:34:14.784Z,-3.32
2023-01-29T21:37:17.389Z,-3.38
2023-01-29T21:40:21.292Z,-3.45
2023-01-29T21:43:23.924Z,-3.54
2023-01-29T21:46:26.291Z,-3.48
2023-01-29T21:49:28.961Z,-3.49
2023-01-29T21:52:31.389Z,-3.53
2023-01-29T21:55:34.274Z,-3.58
2023-01-29T21:58:36.571Z,-3.63
2023-01-29T22:01:39.351Z,-3.52
2023-01-29T22:04:42.509Z,-3.58
2023-01-29T22:07:44.816Z,-3.60
2023-01-29T22:10:47.737Z,-3.48
2023-01-29T22:13:50.617Z,-3.47
2023-01-29T22:16:53.257Z,-3.54
2023-01-29T22:19:55.884Z,-3.54
2023-01-29T22:22:59.429Z,-3.56
2023-01-29T22:26:02.366Z,-3.59
2023-01-29T22:29:05.259Z,-3.61
2023-01-29T22:32:07.898Z,-3.37
2023-01-29T22:35:10.664Z,-3.28
2023-01-29T22:38:12.989Z,-3.22
2023-01-29T22:41:15.811Z,-3.11
2023-01-29T22:44:18.366Z,-3.12
2023-01-29T22:47:21.006Z,-3.17
2023-01-29T22:50:23.366Z,-3.22
2023-01-29T22:53:26.194Z,-3.21
2023-01-29T22:56:30.633Z,-3.22
2023-01-29T22:59:33.392Z,-3.20
2023-01-29T23:02:36.626Z,-3.18
2023-01-29T23:05:39.265Z,-3.23
2023-01-29T23:08:42.279Z,-3.24
2023-01-29T23:11:45.040Z,-3.20
2023-01-29T23:14:47.517Z,-3.21
2023-01-29T23:17:50.152Z,-3.17
2023-01-29T23:20:56.192Z,-3.26
2023-01-29T23:23:59.696Z,-3.21
2023-01-29T23:27:17.513Z,-3.28
2023-01-29T23:30:20.421Z,-3.33
2023-01-29T23:33:23.565Z,-3.38
2023-01-29T23:36:26.184Z,-3.46
2023-01-29T23:39:28.625Z,-3.50
2023-01-29T23:42:31.390Z,-3.55
2023-01-29T23:45:33.773Z,-3.60
2023-01-29T23:48:36.787Z,-3.60
2023-01-29T23:51:39.093Z,-3.68
2023-01-29T23:54:41.886Z,-3.69
2023-01-29T23:57:44.209Z,-3.66
